Time;durP1;ratioP1;P1;durP2;ratioP2;P2;SDS_P1;SDS_P2;PMS_P1;PMS_P2;Temp;Humidity;BMP_temperature;BMP_pressure;BME280_temperature;BME280_humidity;BME280_pressure;Samples;Min_cycle;Max_cycle;Signal;HPM_P1;HPM_P2
2022/07/21 00:00:21;;;;;;;20.10;17.40;;;21.80;94.50;;;;;;5082798;28;20519;-77
2022/07/21 00:02:47;;;;;;;20.63;17.70;;;21.80;94.70;;;;;;5106316;28;20412;-77
2022/07/21 00:05:13;;;;;;;19.23;17.13;;;21.80;94.80;;;;;;5107601;28;20481;-76
2022/07/21 00:07:38;;;;;;;22.60;17.47;;;21.80;93.10;;;;;;5107954;28;20170;-77
2022/07/21 00:10:04;;;;;;;22.67;18.00;;;21.80;95.60;;;;;;5110838;28;20248;-77
2022/07/21 00:12:30;;;;;;;26.57;19.70;;;21.80;96.60;;;;;;5110364;28;20181;-77
2022/07/21 00:14:55;;;;;;;25.27;19.50;;;21.80;97.30;;;;;;5112766;28;20498;-76
2022/07/21 00:17:21;;;;;;;20.80;18.60;;;21.90;96.30;;;;;;5092710;28;20207;-76
2022/07/21 00:19:46;;;;;;;23.30;18.83;;;21.80;94.90;;;;;;5092783;28;20345;-76
2022/07/21 00:22:12;;;;;;;24.43;18.20;;;21.80;95.00;;;;;;5104275;28;20171;-77
2022/07/21 00:24:38;;;;;;;23.53;17.40;;;21.80;93.30;;;;;;5092101;28;20665;-77
2022/07/21 00:27:03;;;;;;;23.07;18.70;;;21.80;93.40;;;;;;5111553;28;20175;-77
2022/07/21 00:29:29;;;;;;;20.63;18.07;;;21.70;92.60;;;;;;5100665;28;20664;-77
2022/07/21 00:31:54;;;;;;;21.50;18.00;;;21.70;94.70;;;;;;5099702;28;20337;-77
2022/07/21 00:34:20;;;;;;;22.20;18.10;;;21.60;91.20;;;;;;5111490;28;20166;-77
2022/07/21 00:36:45;;;;;;;22.60;17.80;;;21.60;94.10;;;;;;5090565;28;20238;-77
2022/07/21 00:39:11;;;;;;;22.43;17.20;;;21.50;93.40;;;;;;5110181;28;20336;-77
2022/07/21 00:41:36;;;;;;;22.20;18.00;;;21.50;92.70;;;;;;5100039;28;21031;-77
2022/07/21 00:44:02;;;;;;;26.13;19.57;;;21.50;94.40;;;;;;5110839;28;20174;-76
2022/07/21 00:46:27;;;;;;;23.07;17.60;;;21.50;93.00;;;;;;5110479;28;20175;-76
2022/07/21 00:48:53;;;;;;;22.23;17.80;;;21.50;94.00;;;;;;5109933;28;20206;-78
2022/07/21 00:51:19;;;;;;;23.33;18.00;;;21.50;94.90;;;;;;5103692;28;20226;-77
2022/07/21 00:53:45;;;;;;;24.33;18.90;;;21.50;95.10;;;;;;5092080;28;20167;-77
2022/07/21 00:56:12;;;;;;;22.20;18.47;;;21.50;95.70;;;;;;5111387;28;20254;-77
2022/07/21 00:58:39;;;;;;;22.93;18.10;;;21.50;95.90;;;;;;5109861;28;21331;-76
2022/07/21 01:01:05;;;;;;;27.57;19.87;;;21.50;95.20;;;;;;5105328;28;20448;-77
2022/07/21 01:03:31;;;;;;;25.63;19.03;;;21.40;96.10;;;;;;5108006;28;21030;-77
2022/07/21 01:05:58;;;;;;;30.30;20.97;;;21.30;98.50;;;;;;5092326;28;20488;-77
2022/07/21 01:08:23;;;;;;;28.60;20.77;;;21.30;99.90;;;;;;5107976;28;20194;-77
2022/07/21 01:10:49;;;;;;;23.67;19.77;;;21.20;99.90;;;;;;5083180;28;20408;-77
2022/07/21 01:13:15;;;;;;;27.37;19.50;;;21.20;99.90;;;;;;5109539;28;20213;-77
2022/07/21 01:15:40;;;;;;;23.23;19.83;;;21.20;99.90;;;;;;5109210;28;20170;-77
2022/07/21 01:18:06;;;;;;;25.67;20.60;;;21.20;99.90;;;;;;5108026;28;20251;-76
2022/07/21 01:20:35;;;;;;;26.47;20.60;;;21.10;99.90;;;;;;5104829;28;20178;-76
2022/07/21 01:23:01;;;;;;;28.47;19.90;;;21.10;99.90;;;;;;5101108;28;20270;-77
2022/07/21 01:25:27;;;;;;;23.80;20.77;;;21.20;99.90;;;;;;5110276;28;20396;-77
2022/07/21 01:27:52;;;;;;;29.87;21.03;;;21.20;99.90;;;;;;5109596;28;20462;-77
2022/07/21 01:30:18;;;;;;;28.20;20.80;;;21.40;99.90;;;;;;5086730;28;20175;-77
2022/07/21 01:32:44;;;;;;;26.97;20.93;;;21.40;99.90;;;;;;5109234;28;20261;-77
2022/07/21 01:35:12;;;;;;;25.90;21.30;;;21.40;99.90;;;;;;5093593;28;20175;-78
2022/07/21 01:37:43;;;;;;;26.60;21.53;;;21.40;97.80;;;;;;5110407;28;20233;-77
2022/07/21 01:42:53;;;;;;;29.70;21.87;;;21.40;96.70;;;;;;5108275;28;20427;-77
2022/07/21 01:45:19;;;;;;;28.13;22.43;;;21.40;98.20;;;;;;5091213;28;20942;-77
2022/07/21 01:47:45;;;;;;;27.77;22.33;;;21.40;99.90;;;;;;5109285;28;20274;-77
2022/07/21 01:50:10;;;;;;;28.27;22.20;;;21.40;97.40;;;;;;5107116;28;20245;-77
2022/07/21 01:52:36;;;;;;;28.50;22.37;;;21.40;99.50;;;;;;5108815;28;20667;-76
2022/07/21 01:55:02;;;;;;;27.33;21.30;;;21.40;99.50;;;;;;5109400;28;20187;-77
2022/07/21 01:57:27;;;;;;;24.50;21.33;;;21.60;99.80;;;;;;5107774;28;20277;-77
2022/07/21 01:59:53;;;;;;;33.53;22.40;;;21.50;98.80;;;;;;5101951;28;20312;-77
2022/07/21 02:02:20;;;;;;;30.80;23.40;;;21.40;99.90;;;;;;5107574;28;20217;-77
2022/07/21 02:04:49;;;;;;;26.80;22.10;;;21.50;99.90;;;;;;5090838;28;20166;-77
2022/07/21 02:07:15;;;;;;;29.10;21.43;;;21.40;99.90;;;;;;5109431;28;20404;-76
2022/07/21 02:09:42;;;;;;;29.67;21.90;;;21.50;99.90;;;;;;5088095;28;20470;-77
2022/07/21 02:12:07;;;;;;;25.40;21.30;;;21.40;99.50;;;;;;5108322;28;20413;-77
2022/07/21 02:14:33;;;;;;;26.20;22.50;;;21.50;99.70;;;;;;5109035;28;20423;-76
2022/07/21 02:16:58;;;;;;;26.63;21.73;;;21.60;99.10;;;;;;5109163;28;20202;-77
2022/07/21 02:19:24;;;;;;;32.80;21.80;;;21.70;94.90;;;;;;5104772;28;20198;-78
2022/07/21 02:21:49;;;;;;;26.00;21.40;;;21.60;95.80;;;;;;5106949;28;20574;-77
2022/07/21 02:24:15;;;;;;;29.90;21.97;;;21.50;96.80;;;;;;5108802;28;20177;-77
2022/07/21 02:26:40;;;;;;;27.53;22.80;;;21.60;97.60;;;;;;5090797;28;20236;-78
2022/07/21 02:29:06;;;;;;;25.27;21.03;;;21.50;96.20;;;;;;5108636;28;20198;-77
2022/07/21 02:31:31;;;;;;;28.50;22.63;;;21.50;96.80;;;;;;5085375;28;20178;-77
2022/07/21 02:33:57;;;;;;;25.20;21.63;;;21.50;96.90;;;;;;5101044;28;20598;-77
2022/07/21 02:36:23;;;;;;;27.07;21.40;;;21.50;96.30;;;;;;5106506;28;20176;-77
2022/07/21 02:38:50;;;;;;;26.80;21.90;;;21.50;96.50;;;;;;5107883;28;20774;-77
2022/07/21 02:41:16;;;;;;;26.73;21.20;;;21.50;96.10;;;;;;5085694;28;20282;-77
2022/07/21 02:43:41;;;;;;;24.30;20.53;;;21.70;96.10;;;;;;5108444;28;20867;-77
2022/07/21 02:46:07;;;;;;;31.83;22.40;;;21.70;95.10;;;;;;5108772;28;20182;-77
2022/07/21 02:48:33;;;;;;;28.10;21.00;;;21.70;92.70;;;;;;5105196;28;20305;-77
2022/07/21 02:50:58;;;;;;;26.83;20.97;;;21.60;95.30;;;;;;5102353;28;20649;-77
2022/07/21 02:53:24;;;;;;;26.07;21.07;;;21.70;96.10;;;;;;5088326;28;20171;-77
2022/07/21 02:55:52;;;;;;;30.97;22.30;;;21.70;92.70;;;;;;5107644;28;20260;-77
2022/07/21 02:58:22;;;;;;;27.40;21.27;;;21.70;94.40;;;;;;5108513;28;20195;-77
2022/07/21 03:00:49;;;;;;;29.90;21.27;;;21.80;95.00;;;;;;5089246;28;20611;-77
2022/07/21 03:03:15;;;;;;;25.07;21.80;;;21.90;95.40;;;;;;5107594;28;20426;-77
2022/07/21 03:05:41;;;;;;;26.50;22.00;;;21.90;90.70;;;;;;5089991;28;20396;-77
2022/07/21 03:08:08;;;;;;;29.07;22.33;;;21.80;88.70;;;;;;5089775;28;20583;-77
2022/07/21 03:10:35;;;;;;;27.40;21.70;;;21.80;88.50;;;;;;5105001;28;20178;-77
2022/07/21 03:13:01;;;;;;;26.83;21.70;;;21.80;91.20;;;;;;5098885;28;20906;-77
2022/07/21 03:15:26;;;;;;;26.20;22.07;;;21.70;92.20;;;;;;5107781;28;20476;-76
2022/07/21 03:17:55;;;;;;;25.17;21.43;;;21.80;93.30;;;;;;5106357;28;20285;-77
2022/07/21 03:20:28;;;;;;;24.03;21.20;;;21.70;92.70;;;;;;5106204;28;20644;-77
2022/07/21 03:22:54;;;;;;;27.97;22.70;;;21.70;92.50;;;;;;5107141;28;20408;-77
2022/07/21 03:25:20;;;;;;;29.83;22.53;;;21.70;93.30;;;;;;5108172;28;20978;-77
2022/07/21 03:27:47;;;;;;;26.97;21.23;;;21.70;91.80;;;;;;5100581;28;20174;-77
2022/07/21 03:30:13;;;;;;;26.23;21.67;;;21.60;92.40;;;;;;5107863;28;20404;-77
2022/07/21 03:32:39;;;;;;;27.73;22.57;;;21.50;95.20;;;;;;5088489;28;20408;-77
2022/07/21 03:35:06;;;;;;;23.80;21.20;;;21.50;94.10;;;;;;5108213;28;20400;-77
2022/07/21 03:37:32;;;;;;;26.93;22.33;;;21.40;95.90;;;;;;5108267;28;20517;-76
2022/07/21 03:39:57;;;;;;;26.20;21.20;;;21.40;95.70;;;;;;5086370;28;20894;-77
2022/07/21 03:42:23;;;;;;;26.00;22.17;;;21.40;95.40;;;;;;5088263;28;20174;-77
2022/07/21 03:44:49;;;;;;;25.47;21.20;;;21.40;97.20;;;;;;5112247;28;20576;-79
2022/07/21 03:47:15;;;;;;;28.20;23.03;;;21.40;98.70;;;;;;5109586;28;20178;-77
2022/07/21 03:49:40;;;;;;;30.43;23.10;;;21.40;94.90;;;;;;5102484;28;21036;-77
2022/07/21 03:52:06;;;;;;;26.33;22.13;;;21.30;94.90;;;;;;5100426;28;20270;-77
2022/07/21 03:54:31;;;;;;;29.20;22.83;;;21.40;97.90;;;;;;5092442;28;20585;-78
2022/07/21 03:56:57;;;;;;;26.70;21.80;;;21.30;99.90;;;;;;5092303;28;20190;-77
2022/07/21 03:59:22;;;;;;;29.30;22.30;;;21.30;99.90;;;;;;5111285;28;20203;-78
2022/07/21 04:01:48;;;;;;;28.77;22.60;;;21.40;97.80;;;;;;5090639;28;20551;-78
2022/07/21 04:04:13;;;;;;;27.30;21.83;;;21.40;97.90;;;;;;5093872;28;20216;-77
2022/07/21 04:06:39;;;;;;;28.20;23.03;;;21.30;96.90;;;;;;5093336;28;20177;-76
2022/07/21 04:09:04;;;;;;;26.10;22.00;;;21.20;97.80;;;;;;5108460;28;20664;-78
2022/07/21 04:11:31;;;;;;;27.10;22.97;;;21.10;99.90;;;;;;5107985;28;20179;-77
2022/07/21 04:13:57;;;;;;;29.10;22.17;;;21.20;99.60;;;;;;5109517;28;20273;-77
2022/07/21 04:16:22;;;;;;;27.30;22.43;;;21.20;98.50;;;;;;5111538;28;20522;-77
2022/07/21 04:18:48;;;;;;;27.43;23.73;;;21.20;99.70;;;;;;5102583;28;20210;-77
2022/07/21 04:21:13;;;;;;;26.30;21.87;;;21.20;99.20;;;;;;5099004;28;20667;-77
2022/07/21 04:23:39;;;;;;;30.67;22.57;;;21.20;98.90;;;;;;5110894;28;20629;-78
2022/07/21 04:26:05;;;;;;;25.97;22.70;;;21.40;98.40;;;;;;5092005;28;20182;-77
2022/07/21 04:28:30;;;;;;;31.77;22.00;;;21.20;97.50;;;;;;5110876;28;20197;-77
2022/07/21 04:30:56;;;;;;;27.57;22.97;;;21.30;96.60;;;;;;5108498;28;20178;-78
2022/07/21 04:33:21;;;;;;;25.90;22.00;;;21.40;98.00;;;;;;5102225;28;20199;-77
2022/07/21 04:35:47;;;;;;;26.00;21.50;;;21.40;97.60;;;;;;5105699;28;20179;-77
2022/07/21 04:38:14;;;;;;;24.97;21.50;;;21.50;94.70;;;;;;5107657;28;20714;-77
2022/07/21 04:40:39;;;;;;;26.50;21.70;;;21.60;92.30;;;;;;5109414;28;20171;-77
2022/07/21 04:43:05;;;;;;;27.33;20.90;;;21.70;92.20;;;;;;5090343;28;20426;-77
2022/07/21 04:45:30;;;;;;;25.93;21.10;;;21.80;90.10;;;;;;5109921;28;20185;-78
2022/07/21 04:47:56;;;;;;;25.63;20.87;;;21.90;88.50;;;;;;5109840;28;20551;-77
2022/07/21 04:50:24;;;;;;;24.43;21.03;;;22.00;79.80;;;;;;5092120;28;20186;-79
2022/07/21 04:52:50;;;;;;;27.73;20.87;;;21.90;84.20;;;;;;5106899;28;20215;-77
2022/07/21 04:55:17;;;;;;;24.97;21.27;;;22.00;80.30;;;;;;5091528;28;20476;-77
2022/07/21 04:57:45;;;;;;;28.13;22.00;;;21.90;76.70;;;;;;5109596;28;20471;-77
2022/07/21 05:00:14;;;;;;;25.50;20.50;;;21.80;83.70;;;;;;5086499;28;20420;-77
2022/07/21 05:02:41;;;;;;;24.03;21.43;;;21.90;87.80;;;;;;5087346;28;20480;-78
2022/07/21 05:05:07;;;;;;;23.20;19.97;;;22.00;78.30;;;;;;5089831;28;20523;-78
2022/07/21 05:07:33;;;;;;;25.77;21.10;;;22.00;79.80;;;;;;5090341;28;20533;-78
2022/07/21 05:09:59;;;;;;;22.70;20.30;;;22.00;76.10;;;;;;5081732;28;20831;-78
2022/07/21 05:12:25;;;;;;;25.53;20.13;;;21.90;78.50;;;;;;5094692;28;20523;-79
2022/07/21 05:14:51;;;;;;;25.93;21.27;;;21.90;78.10;;;;;;5118393;28;20178;-79
2022/07/21 05:17:17;;;;;;;24.23;21.30;;;21.90;80.10;;;;;;5109796;28;20459;-77
2022/07/21 05:19:45;;;;;;;23.33;20.33;;;21.90;77.60;;;;;;5080338;28;20437;-78
2022/07/21 05:22:10;;;;;;;26.33;21.40;;;22.10;73.80;;;;;;5102841;28;20171;-78
2022/07/21 05:24:36;;;;;;;25.57;21.10;;;22.20;73.90;;;;;;5109784;28;20436;-78
2022/07/21 05:27:02;;;;;;;26.90;20.53;;;22.40;64.00;;;;;;5111486;28;20799;-78
2022/07/21 05:29:27;;;;;;;21.37;18.90;;;22.60;56.90;;;;;;5108506;28;20660;-78
2022/07/21 05:31:53;;;;;;;23.50;20.20;;;22.70;48.70;;;;;;5108662;28;20218;-79
2022/07/21 05:34:18;;;;;;;22.73;20.30;;;22.80;49.00;;;;;;5111106;28;20747;-78
2022/07/21 05:36:43;;;;;;;25.97;19.47;;;22.70;48.70;;;;;;5109267;28;20183;-78
2022/07/21 05:39:09;;;;;;;22.60;19.60;;;22.80;48.90;;;;;;5107375;28;20309;-78
2022/07/21 05:41:35;;;;;;;22.40;20.00;;;22.40;48.20;;;;;;5087978;28;20669;-78
2022/07/21 05:44:00;;;;;;;24.90;20.73;;;22.90;48.90;;;;;;5091437;28;20185;-77
2022/07/21 05:46:26;;;;;;;21.77;19.47;;;23.00;49.00;;;;;;5101643;28;20261;-79
2022/07/21 05:48:54;;;;;;;21.93;18.30;;;23.00;48.80;;;;;;5091813;28;20236;-78
2022/07/21 05:51:20;;;;;;;26.00;19.73;;;23.10;39.70;;;;;;5104880;28;20181;-78
2022/07/21 05:53:45;;;;;;;24.87;19.23;;;23.00;36.70;;;;;;5108956;28;20722;-78
2022/07/21 05:56:11;;;;;;;20.97;18.83;;;23.00;42.20;;;;;;5107191;28;20189;-79
2022/07/21 05:58:37;;;;;;;21.10;18.80;;;23.00;36.60;;;;;;5091324;28;20198;-78
2022/07/21 06:01:08;;;;;;;20.17;17.53;;;23.00;37.50;;;;;;5105778;28;20309;-78
2022/07/21 06:03:39;;;;;;;23.37;18.60;;;23.00;39.20;;;;;;5107793;28;20612;-77
2022/07/21 06:06:05;;;;;;;22.30;17.27;;;23.00;33.60;;;;;;5102730;28;20427;-78
2022/07/21 06:08:30;;;;;;;20.03;17.20;;;22.80;33.80;;;;;;5110582;28;20849;-77
2022/07/21 06:10:56;;;;;;;23.27;16.80;;;22.80;36.90;;;;;;5106545;28;20433;-77
2022/07/21 06:13:22;;;;;;;20.23;16.97;;;22.90;35.30;;;;;;5105454;28;20178;-77
2022/07/21 06:15:47;;;;;;;21.30;16.00;;;22.60;37.20;;;;;;5083609;28;20208;-77
2022/07/21 06:18:13;;;;;;;18.47;15.40;;;22.60;39.10;;;;;;5088488;28;20198;-78
2022/07/21 06:20:40;;;;;;;17.00;15.20;;;22.70;39.10;;;;;;5104125;28;20310;-80
2022/07/21 06:23:05;;;;;;;19.23;14.40;;;22.90;33.10;;;;;;5107334;28;20864;-78
2022/07/21 06:25:31;;;;;;;20.80;14.57;;;23.00;23.40;;;;;;5104869;28;20452;-77
2022/07/21 06:27:56;;;;;;;17.63;14.40;;;23.00;24.70;;;;;;5090743;28;20182;-79
2022/07/21 06:30:22;;;;;;;15.80;13.37;;;23.00;16.00;;;;;;5091822;28;20182;-78
2022/07/21 06:32:47;;;;;;;18.00;13.90;;;23.10;18.10;;;;;;5107314;28;20579;-78
2022/07/21 06:35:13;;;;;;;15.57;13.50;;;23.10;15.10;;;;;;5104918;28;20541;-78
2022/07/21 06:37:43;;;;;;;14.93;13.30;;;23.10;12.70;;;;;;5090238;28;20217;-80
2022/07/21 06:40:09;;;;;;;17.87;14.90;;;23.20;10.60;;;;;;5090318;28;20170;-79
2022/07/21 06:42:35;;;;;;;25.13;19.13;;;23.10;4.10;;;;;;5090825;28;20593;-79
2022/07/21 06:45:00;;;;;;;15.70;12.03;;;23.20;4.50;;;;;;5089457;28;20437;-77
2022/07/21 06:47:26;;;;;;;14.37;12.03;;;23.30;1.00;;;;;;5109200;28;20210;-76
2022/07/21 06:49:51;;;;;;;15.07;11.83;;;23.30;1.00;;;;;;5105093;28;20751;-76
2022/07/21 06:52:17;;;;;;;40.30;14.60;;;23.20;1.00;;;;;;5107930;28;20182;-78
2022/07/21 06:54:42;;;;;;;14.27;12.50;;;23.20;1.00;;;;;;5103767;28;20174;-78
2022/07/21 06:57:08;;;;;;;14.93;12.03;;;23.30;1.00;;;;;;5104896;28;20212;-79
2022/07/21 06:59:33;;;;;;;14.30;12.20;;;23.50;1.00;;;;;;5088910;28;20187;-78
2022/07/21 07:01:59;;;;;;;16.20;13.10;;;23.60;1.00;;;;;;5099796;28;20176;-79
2022/07/21 07:04:24;;;;;;;14.57;12.50;;;23.60;1.00;;;;;;5106248;28;20251;-78
2022/07/21 07:06:52;;;;;;;14.47;12.83;;;24.00;1.00;;;;;;5107756;28;20198;-78
2022/07/21 07:09:18;;;;;;;12.80;11.50;;;24.20;1.00;;;;;;5107596;28;20187;-78
2022/07/21 07:11:46;;;;;;;17.00;11.77;;;24.30;1.00;;;;;;5107101;28;20900;-78
2022/07/21 07:14:12;;;;;;;13.00;10.77;;;24.40;1.00;;;;;;5106672;28;20261;-79
2022/07/21 07:16:37;;;;;;;13.67;12.23;;;24.60;1.00;;;;;;5102990;28;20521;-78
2022/07/21 07:19:03;;;;;;;15.27;11.70;;;24.70;1.00;;;;;;5106067;28;20190;-78
2022/07/21 07:21:28;;;;;;;17.87;11.87;;;24.80;1.00;;;;;;5104043;28;20177;-78
2022/07/21 07:23:54;;;;;;;13.57;10.80;;;24.80;1.00;;;;;;5106545;28;20190;-78
2022/07/21 07:26:19;;;;;;;12.43;11.10;;;24.60;1.00;;;;;;5108887;28;20213;-80
2022/07/21 07:28:45;;;;;;;12.73;11.30;;;24.40;1.00;;;;;;5108180;28;20208;-78
2022/07/21 07:31:10;;;;;;;13.27;11.87;;;24.20;1.00;;;;;;5108124;28;20185;-79
2022/07/21 07:33:36;;;;;;;15.67;12.23;;;24.10;1.00;;;;;;5089039;28;20562;-79
2022/07/21 07:36:02;;;;;;;16.00;12.10;;;24.20;1.00;;;;;;5107322;28;20189;-79
2022/07/21 07:38:27;;;;;;;12.13;10.63;;;24.30;1.00;;;;;;5108302;28;20643;-78
2022/07/21 07:40:53;;;;;;;11.97;10.77;;;24.30;1.00;;;;;;5107837;28;20648;-78
2022/07/21 07:43:18;;;;;;;12.80;10.87;;;24.60;1.00;;;;;;5108713;28;20201;-79
2022/07/21 07:45:44;;;;;;;11.20;10.10;;;24.90;1.00;;;;;;5107189;28;20171;-78
2022/07/21 07:48:09;;;;;;;14.40;11.37;;;25.30;1.00;;;;;;5088517;28;20728;-79
2022/07/21 07:50:35;;;;;;;13.10;11.30;;;25.50;1.00;;;;;;5106855;28;20281;-79
2022/07/21 07:53:00;;;;;;;14.43;11.60;;;25.80;1.00;;;;;;5106698;28;20274;-78
2022/07/21 07:55:26;;;;;;;11.70;10.50;;;25.90;1.00;;;;;;5088388;28;20205;-79
2022/07/21 07:57:51;;;;;;;12.43;11.13;;;25.80;1.00;;;;;;5109956;28;20221;-79
2022/07/21 08:00:19;;;;;;;14.73;11.23;;;26.00;1.00;;;;;;5091487;28;20211;-79
2022/07/21 08:02:45;;;;;;;14.10;12.63;;;25.80;1.00;;;;;;5106192;28;20198;-79
2022/07/21 08:05:11;;;;;;;13.47;12.07;;;25.90;1.00;;;;;;5107390;28;20430;-79
2022/07/21 08:07:38;;;;;;;14.07;11.47;;;26.20;1.00;;;;;;5107714;28;20432;-79
2022/07/21 08:10:09;;;;;;;15.80;12.10;;;26.40;1.00;;;;;;5108456;28;20500;-79
2022/07/21 08:12:35;;;;;;;15.33;12.10;;;26.50;1.00;;;;;;5106151;28;20845;-79
2022/07/21 08:15:03;;;;;;;14.50;11.77;;;26.90;1.00;;;;;;5107200;28;20440;-79
2022/07/21 08:17:28;;;;;;;11.17;9.90;;;26.80;1.00;;;;;;5108376;28;20817;-79
2022/07/21 08:19:54;;;;;;;11.90;10.67;;;27.30;1.00;;;;;;5107522;28;20456;-78
2022/07/21 08:22:19;;;;;;;11.87;10.57;;;27.70;1.00;;;;;;5089986;28;20166;-79
2022/07/21 08:24:45;;;;;;;12.47;10.23;;;27.60;1.00;;;;;;5107383;28;20217;-79
2022/07/21 08:27:10;;;;;;;12.50;10.40;;;27.20;1.00;;;;;;5086986;28;20667;-79
2022/07/21 08:29:36;;;;;;;13.13;9.90;;;27.70;1.00;;;;;;5108969;28;20202;-78
2022/07/21 08:32:02;;;;;;;13.07;9.47;;;28.30;1.00;;;;;;5110118;28;20262;-78
2022/07/21 08:34:27;;;;;;;11.50;9.50;;;28.50;1.00;;;;;;5104557;28;20174;-80
2022/07/21 08:36:53;;;;;;;11.00;9.20;;;27.60;1.00;;;;;;5110455;28;20221;-78
2022/07/21 08:39:19;;;;;;;13.63;9.40;;;27.10;1.00;;;;;;5108401;28;20198;-80
2022/07/21 08:41:44;;;;;;;10.70;9.60;;;27.20;1.00;;;;;;5109565;28;20593;-79
2022/07/21 08:44:10;;;;;;;11.70;9.37;;;27.70;1.00;;;;;;5110780;28;20726;-78
2022/07/21 08:46:40;;;;;;;10.73;8.90;;;28.30;1.00;;;;;;5105834;28;20193;-79
2022/07/21 08:49:07;;;;;;;10.43;9.33;;;28.20;1.00;;;;;;5108459;28;20771;-78
2022/07/21 08:51:34;;;;;;;11.30;10.10;;;27.90;1.00;;;;;;5107406;28;20175;-79
2022/07/21 08:54:00;;;;;;;12.33;10.30;;;28.20;1.00;;;;;;5110010;28;20219;-78
2022/07/21 08:56:25;;;;;;;15.90;11.03;;;27.50;1.00;;;;;;5092870;28;20206;-79
2022/07/21 08:58:51;;;;;;;13.60;10.33;;;27.30;1.00;;;;;;5110296;28;20259;-78
2022/07/21 09:01:16;;;;;;;16.40;10.70;;;27.60;1.00;;;;;;5105966;28;20174;-79
2022/07/21 09:03:42;;;;;;;15.10;11.00;;;27.10;1.00;;;;;;5107657;28;20796;-79
2022/07/21 09:06:12;;;;;;;12.83;10.70;;;26.80;1.00;;;;;;5093449;28;20546;-79
2022/07/21 09:08:42;;;;;;;13.73;11.40;;;26.40;1.00;;;;;;5110754;28;20197;-79
2022/07/21 09:11:12;;;;;;;14.17;10.73;;;26.60;1.00;;;;;;5092060;28;20183;-77
2022/07/21 09:13:38;;;;;;;11.03;9.93;;;26.70;1.00;;;;;;5092846;28;20405;-78
2022/07/21 09:16:04;;;;;;;13.40;11.40;;;27.20;1.00;;;;;;5112419;28;20185;-78
2022/07/21 09:18:30;;;;;;;14.50;10.80;;;29.10;1.00;;;;;;5112390;28;20297;-78
2022/07/21 09:20:57;;;;;;;14.30;11.00;;;30.70;1.00;;;;;;5113484;28;20561;-78
2022/07/21 09:23:23;;;;;;;15.73;11.63;;;30.80;1.00;;;;;;5095070;28;20274;-77
2022/07/21 09:25:51;;;;;;;13.63;11.35;;;29.70;1.00;;;;;;5094502;28;20209;-78
2022/07/21 09:28:23;;;;;;;13.77;12.27;;;28.40;1.00;;;;;;5113520;28;20243;-77
2022/07/21 09:30:53;;;;;;;13.93;11.17;;;27.60;1.00;;;;;;5113919;28;20193;-78
2022/07/21 09:33:20;;;;;;;19.17;10.57;;;27.60;1.00;;;;;;5091707;28;20183;-79
2022/07/21 09:35:58;;;;;;;11.43;10.02;;;28.90;1.00;;;;;;5113078;28;20508;-78
2022/07/21 09:38:25;;;;;;;12.60;9.68;;;30.60;1.00;;;;;;5112258;28;20241;-79
2022/07/21 09:40:50;;;;;;;10.60;9.35;;;31.50;1.00;;;;;;5111838;28;20244;-78
2022/07/21 09:43:34;;;;;;;11.18;9.70;;;32.70;1.00;;;;;;5091402;28;20174;-78
2022/07/21 09:46:03;;;;;;;11.68;10.23;;;32.70;1.00;;;;;;5106052;28;20171;-78
2022/07/21 09:48:34;;;;;;;12.85;9.98;;;33.20;1.00;;;;;;5111761;28;20293;-78
2022/07/21 09:51:18;;;;;;;11.20;10.00;;;33.10;1.00;;;;;;5110765;28;20186;-79
2022/07/21 09:54:01;;;;;;;10.65;9.55;;;33.10;1.00;;;;;;5111720;28;20182;-80
2022/07/21 09:56:29;;;;;;;11.13;9.13;;;31.90;1.00;;;;;;5108899;28;20219;-79
2022/07/21 09:58:56;;;;;;;11.10;9.98;;;33.00;1.00;;;;;;5111428;28;20206;-80
2022/07/21 10:01:23;;;;;;;12.63;9.93;;;33.40;1.00;;;;;;5110688;28;20562;-79
2022/07/21 10:03:50;;;;;;;10.25;9.18;;;33.50;1.00;;;;;;5093863;28;20175;-79
2022/07/21 10:06:19;;;;;;;14.38;9.60;;;34.00;1.00;;;;;;5111103;28;20178;-79
2022/07/21 10:08:45;;;;;;;13.77;8.38;;;34.60;1.00;;;;;;5113744;28;20218;-78
2022/07/21 10:11:11;;;;;;;11.85;9.18;;;35.00;1.00;;;;;;5109911;28;20178;-79
2022/07/21 10:13:39;;;;;;;9.52;8.23;;;35.60;1.00;;;;;;5107461;28;20734;-79
2022/07/21 10:16:06;;;;;;;10.48;8.75;;;35.50;1.00;;;;;;5110379;28;20186;-78
2022/07/21 10:18:39;;;;;;;8.43;7.53;;;35.30;1.00;;;;;;5090102;28;20767;-79
2022/07/21 10:21:15;;;;;;;8.60;7.60;;;35.70;1.00;;;;;;5108644;28;20276;-78
2022/07/21 10:23:42;;;;;;;10.75;8.88;;;35.20;1.00;;;;;;5114752;28;20194;-78
2022/07/21 10:26:10;;;;;;;8.57;7.68;;;33.90;1.00;;;;;;5095938;28;20170;-78
2022/07/21 10:28:35;;;;;;;8.25;7.43;;;34.20;1.00;;;;;;5114065;28;20199;-80
2022/07/21 10:31:13;;;;;;;15.27;7.72;;;35.20;1.00;;;;;;5086831;28;20256;-79
2022/07/21 10:33:44;;;;;;;8.23;7.13;;;36.10;1.00;;;;;;5101402;28;20175;-79
2022/07/21 10:36:29;;;;;;;8.30;7.50;;;37.60;1.00;;;;;;5100245;28;20191;-80
2022/07/21 10:39:06;;;;;;;9.70;7.43;;;38.00;1.00;;;;;;5099594;27;20708;-80
2022/07/21 10:41:40;;;;;;;11.85;8.43;;;35.90;1.00;;;;;;5095632;27;20178;-78
2022/07/21 10:44:27;;;;;;;10.45;8.88;;;35.40;1.00;;;;;;5083642;28;20204;-79
2022/07/21 10:47:04;;;;;;;8.63;7.25;;;33.90;1.00;;;;;;5080980;28;20198;-80
2022/07/21 10:49:49;;;;;;;14.57;7.90;;;32.00;1.00;;;;;;5100404;28;20860;-78
2022/07/21 10:52:40;;;;;;;10.20;7.80;;;31.00;1.00;;;;;;5098690;28;20170;-79
2022/07/21 10:55:26;;;;;;;8.80;7.90;;;30.10;1.00;;;;;;5099639;28;20171;-79
2022/07/21 10:58:22;;;;;;;62.67;35.75;;;31.30;1.00;;;;;;5096774;28;20622;-79
2022/07/21 11:00:50;;;;;;;18.25;11.57;;;31.50;1.00;;;;;;5097767;28;20261;-77
2022/07/21 11:03:23;;;;;;;8.48;7.07;;;32.40;1.00;;;;;;5079546;28;20175;-79
2022/07/21 11:06:07;;;;;;;11.13;7.28;;;33.40;1.00;;;;;;5103350;27;20194;-79
2022/07/21 11:08:43;;;;;;;23.70;12.73;;;34.80;1.00;;;;;;5097656;28;20708;-79
2022/07/21 11:11:17;;;;;;;23.05;12.70;;;35.00;1.00;;;;;;5104267;28;20189;-79
2022/07/21 11:14:09;;;;;;;21.48;12.60;;;35.60;1.00;;;;;;5090947;28;20177;-79
2022/07/21 11:16:52;;;;;;;8.65;6.88;;;37.20;1.00;;;;;;5105014;28;20294;-80
2022/07/21 11:19:46;;;;;;;8.80;7.10;;;38.30;1.00;;;;;;5107200;28;20190;-79
2022/07/21 11:22:25;;;;;;;14.52;9.65;;;38.70;1.00;;;;;;5084582;28;20179;-79
2022/07/21 11:25:13;;;;;;;9.88;7.03;;;37.70;1.00;;;;;;5102112;28;20207;-79
2022/07/21 11:27:43;;;;;;;9.48;7.22;;;37.30;1.00;;;;;;5099580;28;20262;-79
2022/07/21 11:30:10;;;;;;;8.85;6.85;;;35.80;1.00;;;;;;5103273;28;20205;-79
2022/07/21 11:32:36;;;;;;;8.90;6.97;;;34.50;1.00;;;;;;5107055;28;20171;-79
2022/07/21 11:35:05;;;;;;;8.40;7.50;;;32.60;1.00;;;;;;5107531;28;20185;-79
2022/07/21 11:37:34;;;;;;;8.07;7.07;;;32.10;1.00;;;;;;5106769;28;20215;-78
2022/07/21 11:40:00;;;;;;;8.15;6.40;;;31.70;1.00;;;;;;5103327;28;20214;-79
2022/07/21 11:42:27;;;;;;;9.13;6.70;;;31.30;1.00;;;;;;5087705;28;20179;-79
2022/07/21 11:44:53;;;;;;;7.03;6.32;;;31.40;1.00;;;;;;5108477;28;20258;-79
2022/07/21 11:47:25;;;;;;;6.80;6.03;;;31.60;1.00;;;;;;5107464;28;20224;-79
2022/07/21 11:49:57;;;;;;;8.43;6.78;;;31.70;1.00;;;;;;5108099;28;20249;-79
2022/07/21 11:52:28;;;;;;;10.02;7.05;;;30.90;1.00;;;;;;5107359;28;20830;-79
2022/07/21 11:54:55;;;;;;;8.02;6.90;;;30.40;1.00;;;;;;5089104;28;20233;-79
2022/07/21 11:57:23;;;;;;;8.70;7.40;;;30.10;1.00;;;;;;5106144;28;20637;-79
2022/07/21 11:59:50;;;;;;;9.75;6.95;;;30.00;1.00;;;;;;5106375;28;20202;-78
2022/07/21 12:02:25;;;;;;;8.70;7.00;;;29.70;1.00;;;;;;5106388;28;20182;-78
2022/07/21 12:05:01;;;;;;;7.78;6.97;;;29.70;1.00;;;;;;5108650;28;20182;-78
2022/07/21 12:07:45;;;;;;;11.13;6.65;;;30.10;1.00;;;;;;5094111;28;20178;-79
2022/07/21 12:10:15;;;;;;;8.80;7.90;;;30.40;1.00;;;;;;5109060;28;20881;-79
2022/07/21 12:12:44;;;;;;;7.38;6.07;;;31.20;1.00;;;;;;5111694;28;20166;-79
2022/07/21 12:15:27;;;;;;;7.57;6.82;;;32.30;1.00;;;;;;5110775;28;20186;-80
2022/07/21 12:18:21;;;;;;;12.82;6.25;;;35.60;1.00;;;;;;5092739;28;20217;-79
2022/07/21 12:20:48;;;;;;;7.97;6.47;;;35.80;1.00;;;;;;5110066;28;20171;-78
2022/07/21 12:23:24;;;;;;;6.95;6.00;;;36.40;1.00;;;;;;5093192;28;20553;-81
2022/07/21 12:25:51;;;;;;;6.97;6.22;;;35.60;1.00;;;;;;5111345;28;20166;-79
2022/07/21 12:28:17;;;;;;;7.78;6.10;;;35.50;1.00;;;;;;5122334;27;20679;-79
2022/07/21 12:30:51;;;;;;;8.20;5.97;;;36.70;1.00;;;;;;5111840;28;20197;-79
2022/07/21 12:33:20;;;;;;;9.10;6.00;;;38.10;1.00;;;;;;5106825;28;20171;-79
2022/07/21 12:36:03;;;;;;;6.47;5.78;;;36.20;1.00;;;;;;5111729;28;20263;-79
2022/07/21 12:38:45;;;;;;;7.82;5.97;;;34.90;1.00;;;;;;5111040;28;20593;-79
2022/07/21 12:41:16;;;;;;;7.55;6.22;;;33.20;1.00;;;;;;5103916;28;20242;-80